createdAt,value
2017-01-02T00:00:01.387Z,-1.31
2017-01-02T00:00:23.367Z,-1.30
2017-01-02T00:00:45.143Z,-1.28
2017-01-02T00:01:06.919Z,-1.27
2017-01-02T00:01:28.662Z,-1.27
2017-01-02T00:01:50.408Z,-1.26
2017-01-02T00:02:12.152Z,-1.28
2017-01-02T00:02:33.907Z,-1.28
2017-01-02T00:02:55.654Z,-1.28
2017-01-02T00:03:26.924Z,-1.29
2017-01-02T00:03:48.677Z,-1.30
2017-01-02T00:04:10.423Z,-1.30
2017-01-02T00:04:36.937Z,-1.30
2017-01-02T00:04:59.700Z,-1.29
2017-01-02T00:05:21.449Z,-1.29
2017-01-02T00:05:43.267Z,-1.30
2017-01-02T00:06:05.006Z,-1.29
2017-01-02T00:06:26.754Z,-1.28
2017-01-02T00:06:48.692Z,-1.27
2017-01-02T00:07:10.439Z,-1.29
2017-01-02T00:07:32.199Z,-1.28
2017-01-02T00:07:53.943Z,-1.28
2017-01-02T00:08:15.709Z,-1.29
2017-01-02T00:08:37.476Z,-1.29
2017-01-02T00:08:59.471Z,-1.28
2017-01-02T00:09:21.550Z,-1.30
2017-01-02T00:09:43.285Z,-1.29
2017-01-02T00:10:05.025Z,-1.29
2017-01-02T00:10:27.770Z,-1.30
2017-01-02T00:10:49.509Z,-1.28
2017-01-02T00:11:11.464Z,-1.27
2017-01-02T00:11:59.738Z,-1.26
2017-01-02T00:12:21.487Z,-1.27
2017-01-02T00:12:44.241Z,-1.27
2017-01-02T00:13:05.973Z,-1.26
2017-01-02T00:13:27.722Z,-1.26
2017-01-02T00:13:49.473Z,-1.27
2017-01-02T00:14:16.017Z,-1.26
2017-01-02T00:14:37.764Z,-1.25
2017-01-02T00:14:59.503Z,-1.24
2017-01-02T00:15:21.249Z,-1.26
2017-01-02T00:15:44.058Z,-1.25
2017-01-02T00:16:06.801Z,-1.25
2017-01-02T00:16:33.322Z,-1.23
2017-01-02T00:16:55.057Z,-1.22
2017-01-02T00:17:16.801Z,-1.21
2017-01-02T00:17:39.559Z,-1.19
2017-01-02T00:18:01.302Z,-1.20
2017-01-02T00:18:23.048Z,-1.22
2017-01-02T00:18:44.786Z,-1.24
2017-01-02T00:19:06.534Z,-1.23
2017-01-02T00:19:28.295Z,-1.21
2017-01-02T00:19:50.036Z,-1.20
2017-01-02T00:20:11.770Z,-1.20
2017-01-02T00:20:33.501Z,-1.19
2017-01-02T00:20:55.380Z,-1.19
2017-01-02T00:21:17.132Z,-1.20
2017-01-02T00:21:40.027Z,-1.21
2017-01-02T00:22:01.886Z,-1.21
2017-01-02T00:22:28.384Z,-1.22
2017-01-02T00:22:50.132Z,-1.21
2017-01-02T00:23:11.876Z,-1.19
2017-01-02T00:23:33.618Z,-1.18
2017-01-02T00:23:56.373Z,-1.18
2017-01-02T00:24:18.381Z,-1.20
2017-01-02T00:24:40.202Z,-1.18
2017-01-02T00:25:01.953Z,-1.18
2017-01-02T00:25:23.714Z,-1.16
2017-01-02T00:25:45.456Z,-1.15
2017-01-02T00:26:07.199Z,-1.16
2017-01-02T00:26:28.945Z,-1.16
2017-01-02T00:26:50.683Z,-1.18
2017-01-02T00:27:12.447Z,-1.19
2017-01-02T00:27:34.208Z,-1.18
2017-01-02T00:27:55.949Z,-1.19
2017-01-02T00:28:17.702Z,-1.19
2017-01-02T00:28:39.450Z,-1.19
2017-01-02T00:29:01.185Z,-1.19
2017-01-02T00:29:22.945Z,-1.18
2017-01-02T00:29:44.680Z,-1.16
2017-01-02T00:30:06.423Z,-1.13
2017-01-02T00:30:28.180Z,-1.16
2017-01-02T00:30:49.937Z,-1.15
2017-01-02T00:31:11.678Z,-1.17
2017-01-02T00:31:33.453Z,-1.17
2017-01-02T00:31:55.200Z,-1.16
2017-01-02T00:32:16.960Z,-1.18
2017-01-02T00:32:39.712Z,-1.18
2017-01-02T00:33:01.457Z,-1.17
2017-01-02T00:33:23.201Z,-1.16
2017-01-02T00:33:44.935Z,-1.16
2017-01-02T00:34:06.685Z,-1.16
2017-01-02T00:34:28.432Z,-1.15
2017-01-02T00:34:50.234Z,-1.16
2017-01-02T00:35:12.408Z,-1.14
2017-01-02T00:35:35.501Z,-1.16
2017-01-02T00:35:57.400Z,-1.17
2017-01-02T00:36:20.435Z,-1.17
2017-01-02T00:36:42.183Z,-1.16
2017-01-02T00:37:03.963Z,-1.15
2017-01-02T00:37:25.713Z,-1.17
2017-01-02T00:37:47.465Z,-1.16
2017-01-02T00:38:09.205Z,-1.12
2017-01-02T00:38:30.958Z,-1.12
2017-01-02T00:38:52.772Z,-1.11
2017-01-02T00:39:14.512Z,-1.12
2017-01-02T00:39:36.262Z,-1.13
2017-01-02T00:39:58.010Z,-1.14
2017-01-02T00:40:19.752Z,-1.12
2017-01-02T00:40:41.491Z,-1.14
2017-01-02T00:41:04.234Z,-1.13
2017-01-02T00:41:25.984Z,-1.10
2017-01-02T00:41:47.732Z,-1.11
2017-01-02T00:42:09.473Z,-1.12
2017-01-02T00:42:31.490Z,-1.12
2017-01-02T00:42:57.975Z,-1.13
2017-01-02T00:43:19.729Z,-1.11
2017-01-02T00:43:42.474Z,-1.10
2017-01-02T00:44:04.261Z,-1.09
2017-01-02T00:44:25.992Z,-1.08
2017-01-02T00:44:47.754Z,-1.08
2017-01-02T00:45:09.483Z,-1.08
2017-01-02T00:45:31.227Z,-1.08
2017-01-02T00:45:52.966Z,-1.07
2017-01-02T00:46:14.731Z,-1.08
2017-01-02T00:46:36.476Z,-1.10
2017-01-02T00:46:58.222Z,-1.11
2017-01-02T00:47:20.016Z,-1.11
2017-01-02T00:47:41.779Z,-1.09
2017-01-02T00:48:03.523Z,-1.11
2017-01-02T00:48:25.277Z,-1.10
2017-01-02T00:48:47.014Z,-1.09
2017-01-02T00:49:08.784Z,-1.09
2017-01-02T00:49:30.588Z,-1.09
2017-01-02T00:49:52.333Z,-1.08
2017-01-02T00:50:14.076Z,-1.09
2017-01-02T00:50:35.804Z,-1.07
2017-01-02T00:50:57.552Z,-1.08
2017-01-02T00:51:19.286Z,-1.07
2017-01-02T00:51:41.059Z,-1.05
2017-01-02T00:52:02.766Z,-1.07
2017-01-02T00:52:24.521Z,-1.09
2017-01-02T00:52:46.266Z,-1.10
2017-01-02T00:53:09.009Z,-1.10
2017-01-02T00:53:30.765Z,-1.07
2017-01-02T00:53:52.500Z,-1.08
2017-01-02T00:54:14.233Z,-1.07
2017-01-02T00:54:40.760Z,-1.08
2017-01-02T00:55:02.515Z,-1.08
2017-01-02T00:55:24.349Z,-1.08
2017-01-02T00:55:47.086Z,-1.08
2017-01-02T00:56:08.840Z,-1.09
2017-01-02T00:56:30.586Z,-1.09
2017-01-02T00:56:52.326Z,-1.09
2017-01-02T00:57:14.065Z,-1.09
2017-01-02T00:57:35.821Z,-1.09
2017-01-02T00:57:57.572Z,-1.08
2017-01-02T00:58:19.296Z,-1.08
2017-01-02T00:58:41.040Z,-1.07
2017-01-02T00:59:02.794Z,-1.05
2017-01-02T00:59:24.550Z,-1.05
2017-01-02T00:59:51.078Z,-1.05
2017-01-02T01:00:12.847Z,-1.04
2017-01-02T01:00:34.604Z,-1.05
2017-01-02T01:00:56.356Z,-1.05
2017-01-02T01:01:22.899Z,-1.04
2017-01-02T01:01:44.641Z,-1.04
2017-01-02T01:02:06.378Z,-1.03
2017-01-02T01:02:32.922Z,-1.04
2017-01-02T01:02:54.662Z,-1.01
2017-01-02T01:03:16.421Z,-1.01
2017-01-02T01:03:38.285Z,-1.02
2017-01-02T01:04:00.020Z,-1.03
2017-01-02T01:04:21.766Z,-1.04
2017-01-02T01:04:43.513Z,-1.03
2017-01-02T01:05:31.768Z,-1.05
2017-01-02T01:05:53.506Z,-1.03
2017-01-02T01:06:17.274Z,-1.05
2017-01-02T01:07:06.806Z,-1.03
2017-01-02T01:07:28.942Z,-1.04
2017-01-02T01:07:50.692Z,-1.02
2017-01-02T01:08:13.426Z,-1.03
2017-01-02T01:08:35.169Z,-1.03
2017-01-02T01:08:56.925Z,-1.03
2017-01-02T01:09:45.189Z,-1.03
2017-01-02T01:10:06.947Z,-1.01
2017-01-02T01:10:28.719Z,-1.02
2017-01-02T01:10:50.467Z,-1.01
2017-01-02T01:11:12.279Z,-1.01
2017-01-02T01:11:34.031Z,-1.01
2017-01-02T01:11:55.768Z,-1.02
2017-01-02T01:12:17.517Z,-1.01
2017-01-02T01:13:37.056Z,-1.01
2017-01-02T01:13:58.788Z,-1.00
2017-01-02T01:14:20.537Z,-1.01
2017-01-02T01:14:43.465Z,-1.00
2017-01-02T01:15:05.529Z,-1.00
2017-01-02T01:15:27.396Z,-1.00
2017-01-02T01:15:49.138Z,-1.01
2017-01-02T01:16:10.931Z,-1.00
2017-01-02T01:16:32.671Z,-0.99
2017-01-02T01:16:54.414Z,-0.98
2017-01-02T01:17:17.136Z,-0.97
2017-01-02T01:17:38.873Z,-0.97
2017-01-02T01:18:00.624Z,-0.96
2017-01-02T01:18:22.370Z,-0.97
2017-01-02T01:18:48.889Z,-1.00
2017-01-02T01:19:10.636Z,-0.99
2017-01-02T01:19:32.380Z,-1.00
2017-01-02T01:19:54.117Z,-0.98
2017-01-02T01:20:15.875Z,-0.98
2017-01-02T01:20:37.628Z,-0.99
2017-01-02T01:20:59.383Z,-0.95
2017-01-02T01:21:22.169Z,-0.98
2017-01-02T01:21:43.900Z,-0.97
2017-01-02T01:22:05.652Z,-0.96
2017-01-02T01:22:27.464Z,-0.93
2017-01-02T01:22:49.217Z,-0.92
2017-01-02T01:23:10.949Z,-0.95
2017-01-02T01:23:32.693Z,-0.95
2017-01-02T01:23:54.448Z,-0.95
2017-01-02T01:24:16.198Z,-0.95
2017-01-02T01:24:37.959Z,-0.96
2017-01-02T01:24:59.710Z,-0.97
2017-01-02T01:25:21.441Z,-0.98
2017-01-02T01:25:43.186Z,-0.97
2017-01-02T01:26:05.033Z,-0.96
2017-01-02T01:26:27.037Z,-0.95
2017-01-02T01:26:48.791Z,-0.95
2017-01-02T01:27:10.660Z,-0.95
2017-01-02T01:27:32.401Z,-0.95
2017-01-02T01:27:54.135Z,-0.94
2017-01-02T01:28:15.882Z,-0.93
2017-01-02T01:28:37.619Z,-0.93
2017-01-02T01:28:59.383Z,-0.92
2017-01-02T01:29:21.124Z,-0.93
2017-01-02T01:29:46.725Z,-0.95
2017-01-02T01:30:08.460Z,-0.95
2017-01-02T01:30:30.211Z,-0.93
2017-01-02T01:30:51.972Z,-0.93
2017-01-02T01:31:13.730Z,-0.93
2017-01-02T01:31:35.478Z,-0.92
2017-01-02T01:31:57.216Z,-0.91
2017-01-02T01:32:18.959Z,-0.91
2017-01-02T01:32:40.706Z,-0.91
2017-01-02T01:33:02.573Z,-0.91
2017-01-02T01:33:24.195Z,-0.92
2017-01-02T01:33:45.939Z,-0.92
2017-01-02T01:34:07.682Z,-0.92
2017-01-02T01:34:29.430Z,-0.92
2017-01-02T01:34:52.180Z,-0.91
2017-01-02T01:35:13.927Z,-0.90
2017-01-02T01:35:35.666Z,-0.89
2017-01-02T01:35:57.420Z,-0.89
2017-01-02T01:36:19.197Z,-0.90
2017-01-02T01:36:40.930Z,-0.91
2017-01-02T01:37:07.437Z,-0.90
2017-01-02T01:37:30.183Z,-0.89
2017-01-02T01:37:52.111Z,-0.88
2017-01-02T01:38:13.853Z,-0.90
2017-01-02T01:38:36.617Z,-0.90
2017-01-02T01:38:58.594Z,-0.90
2017-01-02T01:39:21.366Z,-0.88
2017-01-02T01:39:43.107Z,-0.88
2017-01-02T01:40:04.855Z,-0.88
2017-01-02T01:40:35.873Z,-0.88
2017-01-02T01:40:57.613Z,-0.87
2017-01-02T01:41:19.382Z,-0.87
2017-01-02T01:41:41.110Z,-0.88
2017-01-02T01:42:03.004Z,-0.86
2017-01-02T01:42:24.725Z,-0.87
2017-01-02T01:42:46.484Z,-0.87
2017-01-02T01:43:08.233Z,-0.87
2017-01-02T01:43:29.968Z,-0.86
2017-01-02T01:43:51.827Z,-0.86
2017-01-02T01:44:13.685Z,-0.85
2017-01-02T01:44:35.944Z,-0.85
2017-01-02T01:44:58.121Z,-0.85
2017-01-02T01:45:19.881Z,-0.85
2017-01-02T01:45:41.618Z,-0.86
2017-01-02T01:46:03.356Z,-0.85
2017-01-02T01:46:25.104Z,-0.86
2017-01-02T01:46:46.846Z,-0.86
2017-01-02T01:47:08.581Z,-0.86
2017-01-02T01:47:30.328Z,-0.84
2017-01-02T01:47:52.150Z,-0.86
2017-01-02T01:48:14.095Z,-0.84
2017-01-02T01:48:35.863Z,-0.85
2017-01-02T01:48:57.615Z,-0.86
2017-01-02T01:49:22.319Z,-0.84
2017-01-02T01:49:44.063Z,-0.87
2017-01-02T01:50:05.818Z,-0.85
2017-01-02T01:50:32.328Z,-0.83
2017-01-02T01:50:54.280Z,-0.85
2017-01-02T01:51:16.005Z,-0.85
2017-01-02T01:51:38.994Z,-0.83
2017-01-02T01:52:00.869Z,-0.83
2017-01-02T01:52:23.094Z,-0.83
2017-01-02T01:52:45.017Z,-0.83
2017-01-02T01:53:06.895Z,-0.82
2017-01-02T01:53:28.858Z,-0.82
2017-01-02T01:53:50.748Z,-0.83
2017-01-02T01:54:12.692Z,-0.82
2017-01-02T01:54:34.514Z,-0.83
2017-01-02T01:54:56.387Z,-0.81
2017-01-02T01:55:18.447Z,-0.82
2017-01-02T01:55:40.268Z,-0.81
2017-01-02T01:56:02.025Z,-0.81
2017-01-02T01:56:23.756Z,-0.81
2017-01-02T01:56:45.503Z,-0.80
2017-01-02T01:57:07.244Z,-0.81
2017-01-02T01:57:29.002Z,-0.80
2017-01-02T01:57:50.964Z,-0.78
2017-01-02T01:58:12.797Z,-0.79
2017-01-02T01:58:34.643Z,-0.79
2017-01-02T01:58:56.479Z,-0.80
2017-01-02T01:59:18.224Z,-0.79
2017-01-02T01:59:39.970Z,-0.79
2017-01-02T02:00:01.827Z,-0.80
2017-01-02T02:00:23.570Z,-0.79
2017-01-02T02:00:51.078Z,-0.78
2017-01-02T02:01:12.816Z,-0.80
2017-01-02T02:01:34.566Z,-0.80
2017-01-02T02:01:56.308Z,-0.78
2017-01-02T02:02:18.080Z,-0.78
2017-01-02T02:02:40.829Z,-0.79
2017-01-02T02:03:02.562Z,-0.78
2017-01-02T02:03:24.310Z,-0.77
2017-01-02T02:03:46.066Z,-0.78
2017-01-02T02:04:07.805Z,-0.78
2017-01-02T02:04:29.547Z,-0.79
2017-01-02T02:04:51.289Z,-0.79
2017-01-02T02:05:13.036Z,-0.80
2017-01-02T02:05:34.774Z,-0.79
2017-01-02T02:05:57.526Z,-0.79
2017-01-02T02:06:19.271Z,-0.78
2017-01-02T02:06:41.039Z,-0.78
2017-01-02T02:07:03.017Z,-0.77
2017-01-02T02:07:25.052Z,-0.76
2017-01-02T02:07:46.960Z,-0.79
2017-01-02T02:08:08.890Z,-0.77
2017-01-02T02:08:30.822Z,-0.79
2017-01-02T02:08:52.805Z,-0.77
2017-01-02T02:09:14.601Z,-0.79
2017-01-02T02:09:36.339Z,-0.77
2017-01-02T02:09:58.131Z,-0.78
2017-01-02T02:10:19.881Z,-0.78
2017-01-02T02:10:41.615Z,-0.79
2017-01-02T02:11:03.660Z,-0.80
2017-01-02T02:11:25.546Z,-0.81
2017-01-02T02:11:47.856Z,-0.79
2017-01-02T02:12:09.635Z,-0.78
2017-01-02T02:12:31.657Z,-0.77
2017-01-02T02:12:58.339Z,-0.77
2017-01-02T02:13:20.134Z,-0.78
2017-01-02T02:13:42.015Z,-0.77
2017-01-02T02:14:03.813Z,-0.76
2017-01-02T02:14:25.555Z,-0.77
2017-01-02T02:14:47.299Z,-0.77
2017-01-02T02:15:09.046Z,-0.79
2017-01-02T02:15:30.793Z,-0.78
2017-01-02T02:15:52.566Z,-0.77
2017-01-02T02:16:14.345Z,-0.77
2017-01-02T02:16:36.211Z,-0.78
2017-01-02T02:16:58.132Z,-0.78
2017-01-02T02:17:20.163Z,-0.78
2017-01-02T02:17:43.008Z,-0.78
2017-01-02T02:18:04.842Z,-0.78
2017-01-02T02:18:26.585Z,-0.76
2017-01-02T02:18:48.349Z,-0.75
2017-01-02T02:19:10.090Z,-0.79
2017-01-02T02:19:31.836Z,-0.76
2017-01-02T02:19:53.625Z,-0.76
2017-01-02T02:20:15.363Z,-0.75
2017-01-02T02:20:37.132Z,-0.76
2017-01-02T02:20:58.877Z,-0.76
2017-01-02T02:21:20.624Z,-0.76
2017-01-02T02:21:42.375Z,-0.73
2017-01-02T02:22:04.115Z,-0.75
2017-01-02T02:22:26.932Z,-0.76
2017-01-02T02:22:48.822Z,-0.75
2017-01-02T02:23:10.575Z,-0.75
2017-01-02T02:23:32.327Z,-0.75
2017-01-02T02:23:54.064Z,-0.75
2017-01-02T02:24:15.868Z,-0.74
2017-01-02T02:24:37.608Z,-0.73
2017-01-02T02:24:59.377Z,-0.74
2017-01-02T02:25:21.126Z,-0.72
2017-01-02T02:25:42.884Z,-0.72
2017-01-02T02:26:04.710Z,-0.73
2017-01-02T02:26:26.508Z,-0.73
2017-01-02T02:26:48.323Z,-0.74
2017-01-02T02:27:10.057Z,-0.74
2017-01-02T02:27:31.792Z,-0.75
2017-01-02T02:27:53.523Z,-0.75
2017-01-02T02:28:20.045Z,-0.74
2017-01-02T02:28:41.807Z,-0.74
2017-01-02T02:29:03.563Z,-0.73
2017-01-02T02:29:25.356Z,-0.74
2017-01-02T02:29:47.092Z,-0.74
2017-01-02T02:30:09.835Z,-0.74
2017-01-02T02:30:31.581Z,-0.73
2017-01-02T02:30:53.332Z,-0.73
2017-01-02T02:31:15.082Z,-0.72
2017-01-02T02:31:36.820Z,-0.74
2017-01-02T02:31:58.576Z,-0.75
2017-01-02T02:32:21.321Z,-0.75
2017-01-02T02:32:43.065Z,-0.77
2017-01-02T02:33:09.582Z,-0.76
2017-01-02T02:33:31.323Z,-0.76
2017-01-02T02:33:53.059Z,-0.76
2017-01-02T02:34:19.563Z,-0.78
2017-01-02T02:34:41.311Z,-0.75
2017-01-02T02:35:03.087Z,-0.74
2017-01-02T02:35:24.850Z,-0.73
2017-01-02T02:35:46.595Z,-0.73
2017-01-02T02:36:08.352Z,-0.74
2017-01-02T02:36:30.086Z,-0.74
2017-01-02T02:36:51.831Z,-0.74
2017-01-02T02:37:13.577Z,-0.72
2017-01-02T02:37:35.322Z,-0.72
2017-01-02T02:37:58.051Z,-0.73
2017-01-02T02:38:19.795Z,-0.74
2017-01-02T02:38:41.532Z,-0.72
2017-01-02T02:39:03.274Z,-0.73
2017-01-02T02:39:25.014Z,-0.73
2017-01-02T02:39:47.750Z,-0.72
2017-01-02T02:40:10.504Z,-0.73
2017-01-02T02:40:32.246Z,-0.71
2017-01-02T02:40:53.974Z,-0.71
2017-01-02T02:41:21.517Z,-0.71
2017-01-02T02:41:43.268Z,-0.72
2017-01-02T02:42:05.018Z,-0.73
2017-01-02T02:42:26.777Z,-0.73
2017-01-02T02:42:48.537Z,-0.72
2017-01-02T02:43:10.282Z,-0.70
2017-01-02T02:43:32.031Z,-0.71
2017-01-02T02:43:58.538Z,-0.70
2017-01-02T02:44:20.288Z,-0.71
2017-01-02T02:44:43.034Z,-0.71
2017-01-02T02:45:04.781Z,-0.70
2017-01-02T02:45:26.561Z,-0.70
2017-01-02T02:45:48.313Z,-0.70
2017-01-02T02:46:10.055Z,-0.69
2017-01-02T02:46:31.785Z,-0.69
2017-01-02T02:46:53.533Z,-0.69
2017-01-02T02:47:15.283Z,-0.70
2017-01-02T02:47:37.029Z,-0.70
2017-01-02T02:47:58.765Z,-0.68
2017-01-02T02:48:20.508Z,-0.71
2017-01-02T02:48:42.256Z,-0.72
2017-01-02T02:49:04.016Z,-0.73
2017-01-02T02:49:25.760Z,-0.71
2017-01-02T02:49:47.508Z,-0.70
2017-01-02T02:50:09.242Z,-0.72
2017-01-02T02:50:31.011Z,-0.70
2017-01-02T02:50:52.755Z,-0.69
2017-01-02T02:51:14.774Z,-0.68
2017-01-02T02:51:36.874Z,-0.69
2017-01-02T02:51:58.614Z,-0.68
2017-01-02T02:52:20.428Z,-0.70
2017-01-02T02:52:42.311Z,-0.68
2017-01-02T02:53:04.505Z,-0.69
2017-01-02T02:53:26.272Z,-0.71
2017-01-02T02:53:48.013Z,-0.71
2017-01-02T02:54:09.750Z,-0.70
2017-01-02T02:54:31.702Z,-0.70
2017-01-02T02:54:58.195Z,-0.69
2017-01-02T02:55:19.936Z,-0.69
2017-01-02T02:55:41.696Z,-0.69
2017-01-02T02:56:03.450Z,-0.69
2017-01-02T02:56:25.183Z,-0.69
2017-01-02T02:56:46.942Z,-0.69
2017-01-02T02:57:09.686Z,-0.67
2017-01-02T02:57:31.430Z,-0.70
2017-01-02T02:57:53.171Z,-0.70
2017-01-02T02:58:15.078Z,-0.71
2017-01-02T02:58:41.730Z,-0.70
2017-01-02T02:59:03.482Z,-0.71
2017-01-02T02:59:29.992Z,-0.69
2017-01-02T02:59:51.721Z,-0.70
2017-01-02T03:00:13.470Z,-0.74
2017-01-02T03:00:35.210Z,-0.71
2017-01-02T03:00:56.955Z,-0.71
2017-01-02T03:01:18.720Z,-0.71
2017-01-02T03:01:40.468Z,-0.72
2017-01-02T03:02:02.225Z,-0.73
2017-01-02T03:02:23.969Z,-0.71
2017-01-02T03:02:45.720Z,-0.71
2017-01-02T03:03:07.477Z,-0.69
2017-01-02T03:03:29.239Z,-0.68
2017-01-02T03:03:51.041Z,-0.69
2017-01-02T03:04:12.791Z,-0.69
2017-01-02T03:04:34.848Z,-0.70
2017-01-02T03:04:56.598Z,-0.70
2017-01-02T03:05:18.355Z,-0.69
2017-01-02T03:05:40.084Z,-0.67
2017-01-02T03:06:02.004Z,-0.69
2017-01-02T03:06:24.017Z,-0.70
2017-01-02T03:06:45.760Z,-0.68
2017-01-02T03:07:07.534Z,-0.68
2017-01-02T03:07:29.290Z,-0.68
2017-01-02T03:07:51.043Z,-0.69
2017-01-02T03:08:12.787Z,-0.69
2017-01-02T03:08:34.538Z,-0.69
2017-01-02T03:08:56.296Z,-0.68
2017-01-02T03:09:18.029Z,-0.70
2017-01-02T03:09:45.553Z,-0.69
2017-01-02T03:10:07.288Z,-0.68
2017-01-02T03:10:29.034Z,-0.69
2017-01-02T03:10:50.925Z,-0.68
2017-01-02T03:11:13.006Z,-0.68
2017-01-02T03:11:34.823Z,-0.68
2017-01-02T03:11:56.576Z,-0.66
2017-01-02T03:12:23.075Z,-0.64
2017-01-02T03:12:44.980Z,-0.64
2017-01-02T03:13:06.718Z,-0.65
2017-01-02T03:13:28.451Z,-0.63
2017-01-02T03:13:50.192Z,-0.65
2017-01-02T03:14:11.947Z,-0.66
2017-01-02T03:14:33.963Z,-0.64
2017-01-02T03:15:00.602Z,-0.65
2017-01-02T03:15:22.334Z,-0.65
2017-01-02T03:15:44.489Z,-0.65
2017-01-02T03:16:07.223Z,-0.66
2017-01-02T03:16:28.972Z,-0.66
2017-01-02T03:16:50.739Z,-0.65
2017-01-02T03:17:12.494Z,-0.65
2017-01-02T03:17:35.239Z,-0.65
2017-01-02T03:17:56.986Z,-0.66
2017-01-02T03:18:24.488Z,-0.64
2017-01-02T03:18:47.224Z,-0.64
2017-01-02T03:19:08.955Z,-0.66
2017-01-02T03:19:30.697Z,-0.67
2017-01-02T03:19:52.459Z,-0.64
2017-01-02T03:20:14.204Z,-0.62
2017-01-02T03:20:35.943Z,-0.61
2017-01-02T03:20:57.683Z,-0.62
2017-01-02T03:21:19.611Z,-0.63
2017-01-02T03:21:41.482Z,-0.63
2017-01-02T03:22:03.277Z,-0.62
2017-01-02T03:22:25.021Z,-0.63
2017-01-02T03:22:46.768Z,-0.62
2017-01-02T03:23:09.509Z,-0.62
2017-01-02T03:23:31.255Z,-0.63
2017-01-02T03:23:57.760Z,-0.63
2017-01-02T03:24:19.506Z,-0.63
2017-01-02T03:24:41.258Z,-0.62
2017-01-02T03:25:02.996Z,-0.61
2017-01-02T03:25:25.760Z,-0.60
2017-01-02T03:25:47.869Z,-0.61
2017-01-02T03:26:09.972Z,-0.61
2017-01-02T03:26:31.709Z,-0.62
2017-01-02T03:26:53.450Z,-0.63
2017-01-02T03:27:15.190Z,-0.61
2017-01-02T03:27:36.958Z,-0.60
2017-01-02T03:27:58.883Z,-0.61
2017-01-02T03:28:21.085Z,-0.59
2017-01-02T03:29:10.386Z,-0.59
2017-01-02T03:29:32.128Z,-0.63
2017-01-02T03:30:20.412Z,-0.63
2017-01-02T03:30:42.168Z,-0.63
2017-01-02T03:31:04.913Z,-0.61
2017-01-02T03:31:26.649Z,-0.62
2017-01-02T03:31:48.389Z,-0.61
2017-01-02T03:32:11.124Z,-0.61
2017-01-02T03:32:32.864Z,-0.62
2017-01-02T03:32:54.615Z,-0.62
2017-01-02T03:33:16.374Z,-0.62
2017-01-02T03:33:38.132Z,-0.62
2017-01-02T03:33:59.866Z,-0.61
2017-01-02T03:34:52.904Z,-0.61
2017-01-02T03:35:14.648Z,-0.59
2017-01-02T03:35:36.389Z,-0.59
2017-01-02T03:35:58.139Z,-0.59
2017-01-02T03:36:19.885Z,-0.60
2017-01-02T03:36:41.636Z,-0.60
2017-01-02T03:37:08.161Z,-0.60
2017-01-02T03:37:29.898Z,-0.59
2017-01-02T03:37:51.651Z,-0.60
2017-01-02T03:38:13.402Z,-0.59
2017-01-02T03:38:35.144Z,-0.59
2017-01-02T03:38:56.897Z,-0.61
2017-01-02T03:39:18.638Z,-0.59
2017-01-02T03:39:40.383Z,-0.59
2017-01-02T03:40:02.139Z,-0.57
2017-01-02T03:40:23.885Z,-0.59
2017-01-02T03:40:45.631Z,-0.58
2017-01-02T03:41:07.367Z,-0.60
2017-01-02T03:41:29.121Z,-0.60
2017-01-02T03:41:50.882Z,-0.60
2017-01-02T03:42:13.607Z,-0.60
2017-01-02T03:42:35.349Z,-0.60
2017-01-02T03:42:57.088Z,-0.60
2017-01-02T03:43:18.828Z,-0.60
2017-01-02T03:43:40.608Z,-0.59
2017-01-02T03:44:07.115Z,-0.61
2017-01-02T03:44:55.423Z,-0.59
2017-01-02T03:45:17.168Z,-0.59
2017-01-02T03:45:38.909Z,-0.59
2017-01-02T03:46:00.664Z,-0.60
2017-01-02T03:46:22.405Z,-0.59
2017-01-02T03:46:44.134Z,-0.60
2017-01-02T03:47:05.883Z,-0.59
2017-01-02T03:47:27.634Z,-0.59
2017-01-02T03:47:49.369Z,-0.59
2017-01-02T03:48:11.110Z,-0.58
2017-01-02T03:48:32.925Z,-0.59
2017-01-02T03:48:54.778Z,-0.59
2017-01-02T03:49:16.516Z,-0.61
2017-01-02T03:49:38.248Z,-0.59
2017-01-02T03:49:59.997Z,-0.60
2017-01-02T03:50:21.727Z,-0.61
2017-01-02T03:50:43.603Z,-0.59
2017-01-02T03:51:05.347Z,-0.59
2017-01-02T03:51:27.102Z,-0.59
2017-01-02T03:51:48.840Z,-0.62
2017-01-02T03:52:10.577Z,-0.61
2017-01-02T03:52:32.483Z,-0.62
2017-01-02T03:52:54.761Z,-0.59
2017-01-02T03:53:16.673Z,-0.59
2017-01-02T03:53:38.544Z,-0.57
2017-01-02T03:54:05.400Z,-0.56
2017-01-02T03:54:27.488Z,-0.57
2017-01-02T03:54:49.277Z,-0.56
2017-01-02T03:55:11.016Z,-0.56
2017-01-02T03:55:32.752Z,-0.57
2017-01-02T03:55:55.497Z,-0.56
2017-01-02T03:56:17.252Z,-0.56
2017-01-02T03:56:38.982Z,-0.57
2017-01-02T03:57:01.740Z,-0.61
2017-01-02T03:57:23.482Z,-0.58
2017-01-02T03:57:45.357Z,-0.57
2017-01-02T03:58:07.107Z,-0.57
2017-01-02T03:58:28.863Z,-0.57
2017-01-02T03:58:50.606Z,-0.57
2017-01-02T03:59:12.340Z,-0.56
2017-01-02T03:59:34.093Z,-0.56
2017-01-02T03:59:55.842Z,-0.55
2017-01-02T04:00:18.588Z,-0.55
2017-01-02T04:00:40.325Z,-0.55
2017-01-02T04:01:06.837Z,-0.55
2017-01-02T04:01:28.774Z,-0.54
2017-01-02T04:01:50.528Z,-0.55
2017-01-02T04:02:12.253Z,-0.54
2017-01-02T04:02:36.204Z,-0.57
2017-01-02T04:02:57.950Z,-0.53
2017-01-02T04:03:19.689Z,-0.55
2017-01-02T04:03:41.937Z,-0.55
2017-01-02T04:04:03.674Z,-0.55
2017-01-02T04:04:25.462Z,-0.53
2017-01-02T04:04:47.200Z,-0.55
2017-01-02T04:05:08.947Z,-0.54
2017-01-02T04:05:30.694Z,-0.53
2017-01-02T04:05:52.451Z,-0.53
2017-01-02T04:06:14.286Z,-0.55
2017-01-02T04:06:36.033Z,-0.54
2017-01-02T04:06:57.771Z,-0.54
2017-01-02T04:07:19.533Z,-0.54
2017-01-02T04:07:41.260Z,-0.53
2017-01-02T04:08:03.001Z,-0.56
2017-01-02T04:08:24.742Z,-0.55
2017-01-02T04:08:46.486Z,-0.54
2017-01-02T04:09:08.279Z,-0.54
2017-01-02T04:09:30.030Z,-0.54
2017-01-02T04:09:54.525Z,-0.55
2017-01-02T04:10:16.269Z,-0.54
2017-01-02T04:10:38.024Z,-0.53
2017-01-02T04:10:59.757Z,-0.53
2017-01-02T04:11:21.513Z,-0.53
2017-01-02T04:11:43.262Z,-0.53
2017-01-02T04:12:04.998Z,-0.53
2017-01-02T04:12:27.731Z,-0.53
2017-01-02T04:12:49.465Z,-0.53
2017-01-02T04:13:11.204Z,-0.53
2017-01-02T04:13:32.956Z,-0.54
2017-01-02T04:13:54.694Z,-0.53
2017-01-02T04:14:16.556Z,-0.53
2017-01-02T04:14:38.302Z,-0.53
2017-01-02T04:15:00.039Z,-0.53
2017-01-02T04:15:21.770Z,-0.53
2017-01-02T04:15:43.529Z,-0.51
2017-01-02T04:16:05.261Z,-0.51
2017-01-02T04:16:27.017Z,-0.52
2017-01-02T04:16:48.898Z,-0.52
2017-01-02T04:17:10.638Z,-0.51
2017-01-02T04:17:32.377Z,-0.51
2017-01-02T04:17:54.145Z,-0.51
2017-01-02T04:18:15.982Z,-0.51
2017-01-02T04:18:37.761Z,-0.51
2017-01-02T04:18:59.799Z,-0.53
2017-01-02T04:19:21.907Z,-0.53
2017-01-02T04:19:43.826Z,-0.53
2017-01-02T04:20:05.833Z,-0.52
2017-01-02T04:20:27.943Z,-0.52
2017-01-02T04:20:54.684Z,-0.50
2017-01-02T04:21:16.735Z,-0.50
2017-01-02T04:21:38.822Z,-0.50
2017-01-02T04:22:00.839Z,-0.50
2017-01-02T04:22:22.740Z,-0.51
2017-01-02T04:22:44.848Z,-0.50
2017-01-02T04:23:07.026Z,-0.51
2017-01-02T04:23:29.068Z,-0.49
2017-01-02T04:23:50.991Z,-0.48
2017-01-02T04:24:12.743Z,-0.47
2017-01-02T04:24:34.487Z,-0.49
2017-01-02T04:24:56.221Z,-0.50
2017-01-02T04:25:17.970Z,-0.50
2017-01-02T04:25:39.714Z,-0.49
2017-01-02T04:26:01.452Z,-0.49
2017-01-02T04:26:23.197Z,-0.50
2017-01-02T04:26:44.940Z,-0.50
2017-01-02T04:27:06.681Z,-0.53
2017-01-02T04:27:28.415Z,-0.52
2017-01-02T04:27:50.159Z,-0.49
2017-01-02T04:28:11.929Z,-0.49
2017-01-02T04:28:33.955Z,-0.51
2017-01-02T04:28:55.983Z,-0.52
2017-01-02T04:29:18.154Z,-0.51
2017-01-02T04:29:40.181Z,-0.50
2017-01-02T04:30:01.914Z,-0.51
2017-01-02T04:30:23.653Z,-0.51
2017-01-02T04:30:45.503Z,-0.49
2017-01-02T04:31:07.253Z,-0.49
2017-01-02T04:31:28.988Z,-0.49
2017-01-02T04:31:50.965Z,-0.49
2017-01-02T04:32:12.775Z,-0.49
2017-01-02T04:32:34.643Z,-0.51
2017-01-02T04:32:56.767Z,-0.49
2017-01-02T04:33:18.728Z,-0.48
2017-01-02T04:33:41.708Z,-0.47
2017-01-02T04:34:03.443Z,-0.49
2017-01-02T04:34:25.177Z,-0.50
2017-01-02T04:34:47.026Z,-0.48
2017-01-02T04:35:08.768Z,-0.48
2017-01-02T04:35:30.501Z,-0.47
2017-01-02T04:35:52.245Z,-0.47
2017-01-02T04:36:13.986Z,-0.46
2017-01-02T04:36:35.724Z,-0.45
2017-01-02T04:36:57.455Z,-0.47
2017-01-02T04:37:19.212Z,-0.48
2017-01-02T04:37:40.957Z,-0.48
2017-01-02T04:38:02.703Z,-0.48
2017-01-02T04:38:24.451Z,-0.47
2017-01-02T04:38:46.189Z,-0.46
2017-01-02T04:39:07.986Z,-0.48
2017-01-02T04:39:29.714Z,-0.48
2017-01-02T04:39:51.461Z,-0.48
2017-01-02T04:40:13.208Z,-0.47
2017-01-02T04:40:34.947Z,-0.47
2017-01-02T04:40:56.697Z,-0.45
2017-01-02T04:41:18.447Z,-0.46
2017-01-02T04:41:40.181Z,-0.47
2017-01-02T04:42:01.916Z,-0.46
2017-01-02T04:42:23.672Z,-0.46
2017-01-02T04:42:45.577Z,-0.47
2017-01-02T04:43:07.314Z,-0.47
2017-01-02T04:43:29.053Z,-0.47
2017-01-02T04:43:50.885Z,-0.46
2017-01-02T04:44:12.624Z,-0.46
2017-01-02T04:44:39.127Z,-0.44
2017-01-02T04:45:00.874Z,-0.43
2017-01-02T04:45:22.616Z,-0.44
2017-01-02T04:45:44.375Z,-0.44
2017-01-02T04:46:06.200Z,-0.45
2017-01-02T04:46:28.168Z,-0.44
2017-01-02T04:46:49.906Z,-0.46
2017-01-02T04:47:11.643Z,-0.44
2017-01-02T04:47:33.391Z,-0.46
2017-01-02T04:47:55.151Z,-0.46
2017-01-02T04:48:16.901Z,-0.47
2017-01-02T04:48:38.646Z,-0.47
2017-01-02T04:49:00.411Z,-0.45